createdAt,value
2023-03-19T00:01:13.979Z,25.70
2023-03-19T00:03:43.109Z,25.70
2023-03-19T00:06:12.361Z,25.80
2023-03-19T00:08:41.383Z,25.80
2023-03-19T00:11:11.861Z,25.90
2023-03-19T00:13:41.091Z,25.90
2023-03-19T00:16:10.409Z,26.00
2023-03-19T00:18:39.418Z,26.10
2023-03-19T00:21:08.378Z,26.20
2023-03-19T00:23:37.886Z,26.30
2023-03-19T00:26:07.852Z,26.40
2023-03-19T00:28:38.404Z,26.50
2023-03-19T00:31:16.698Z,26.50
2023-03-19T00:33:45.747Z,26.70
2023-03-19T00:36:15.157Z,26.80
2023-03-19T00:38:44.996Z,26.80
2023-03-19T00:41:14.922Z,26.90
2023-03-19T00:43:43.861Z,27.00
2023-03-19T00:46:12.900Z,27.10
2023-03-19T00:48:41.854Z,27.20
2023-03-19T00:51:12.607Z,27.30
2023-03-19T00:53:44.093Z,27.40
2023-03-19T00:56:14.972Z,27.50
2023-03-19T00:58:43.918Z,27.60
2023-03-19T01:01:15.772Z,27.70
2023-03-19T01:03:46.122Z,27.80
2023-03-19T01:06:15.354Z,27.90
2023-03-19T01:08:53.500Z,28.00
2023-03-19T01:11:22.615Z,28.10
2023-03-19T01:13:51.766Z,28.20
2023-03-19T01:16:20.724Z,28.30
2023-03-19T01:18:49.680Z,28.40
2023-03-19T01:21:18.894Z,28.50
2023-03-19T01:23:47.963Z,28.60
2023-03-19T01:26:17.019Z,28.70
2023-03-19T01:28:46.684Z,28.90
2023-03-19T01:31:15.713Z,29.10
2023-03-19T01:33:44.814Z,29.20
2023-03-19T01:36:14.204Z,29.40
2023-03-19T01:38:43.097Z,29.50
2023-03-19T01:41:12.049Z,29.70
2023-03-19T01:43:41.254Z,29.70
2023-03-19T01:46:17.536Z,29.70
2023-03-19T01:48:54.529Z,29.70
2023-03-19T01:51:27.989Z,29.80
2023-03-19T01:54:04.802Z,29.90
2023-03-19T01:56:40.083Z,30.00
2023-03-19T01:59:14.509Z,30.00
2023-03-19T02:01:59.139Z,30.20
2023-03-19T02:04:31.064Z,30.30
2023-03-19T02:07:02.399Z,30.40
2023-03-19T02:09:32.053Z,30.60
2023-03-19T02:12:02.971Z,30.80
2023-03-19T02:14:32.178Z,30.90
2023-03-19T02:17:01.653Z,30.90
2023-03-19T02:19:37.887Z,30.90
2023-03-19T02:22:07.819Z,31.00
2023-03-19T02:25:13.310Z,31.20
2023-03-19T02:27:43.479Z,31.40
2023-03-19T02:30:24.954Z,31.50
2023-03-19T02:32:53.938Z,31.60
2023-03-19T02:35:22.971Z,31.70
2023-03-19T02:37:52.320Z,31.80
2023-03-19T02:40:34.269Z,32.00
2023-03-19T02:43:03.234Z,32.20
2023-03-19T02:45:33.332Z,32.40
2023-03-19T02:48:02.578Z,32.60
2023-03-19T02:50:31.722Z,32.80
2023-03-19T02:53:00.915Z,33.00
2023-03-19T02:55:29.908Z,33.10
2023-03-19T02:57:58.837Z,33.30
2023-03-19T03:00:27.806Z,33.50
2023-03-19T03:02:58.823Z,33.60
2023-03-19T03:05:27.970Z,33.80
2023-03-19T03:07:57.110Z,34.00
2023-03-19T03:10:26.089Z,34.10
2023-03-19T03:12:54.999Z,34.20
2023-03-19T03:15:23.992Z,34.20
2023-03-19T03:17:53.180Z,34.20
2023-03-19T03:20:22.262Z,34.20
2023-03-19T03:22:51.155Z,34.20
2023-03-19T03:25:20.326Z,34.10
2023-03-19T03:27:49.414Z,34.00
2023-03-19T03:30:18.531Z,34.00
2023-03-19T03:32:47.963Z,34.10
2023-03-19T03:35:23.044Z,34.10
2023-03-19T03:37:53.269Z,34.10
2023-03-19T03:40:22.511Z,34.30
2023-03-19T03:42:51.938Z,34.40
2023-03-19T03:45:20.979Z,34.50
2023-03-19T03:47:49.973Z,34.70
2023-03-19T03:50:18.981Z,34.80
2023-03-19T03:52:49.049Z,34.90
2023-03-19T03:55:18.013Z,34.90
2023-03-19T03:57:46.956Z,34.90
2023-03-19T04:00:16.254Z,35.00
2023-03-19T04:02:45.251Z,35.10
2023-03-19T04:05:14.162Z,35.20
2023-03-19T04:07:43.832Z,35.40
2023-03-19T04:10:16.541Z,35.60
2023-03-19T04:12:47.003Z,35.80
2023-03-19T04:15:16.673Z,36.10
2023-03-19T04:17:46.494Z,36.30
2023-03-19T04:20:17.419Z,36.50
2023-03-19T04:22:46.925Z,36.70
2023-03-19T04:25:15.826Z,36.90
2023-03-19T04:27:44.738Z,37.10
2023-03-19T04:30:14.734Z,37.20
2023-03-19T04:32:45.452Z,37.40
2023-03-19T04:35:14.418Z,37.50
2023-03-19T04:37:49.541Z,37.70
2023-03-19T04:40:19.522Z,37.90
2023-03-19T04:42:48.404Z,38.10
2023-03-19T04:45:17.543Z,38.30
2023-03-19T04:47:46.465Z,38.50
2023-03-19T04:50:15.836Z,38.50
2023-03-19T04:52:45.043Z,38.60
2023-03-19T04:55:14.264Z,38.80
2023-03-19T04:57:43.203Z,38.80
2023-03-19T05:00:13.384Z,38.90
2023-03-19T05:02:44.005Z,38.80
2023-03-19T05:05:14.661Z,38.80
2023-03-19T05:07:43.713Z,38.80
2023-03-19T05:10:13.376Z,38.90
2023-03-19T05:12:42.652Z,39.00
2023-03-19T05:15:12.065Z,39.10
2023-03-19T05:17:40.982Z,39.20
2023-03-19T05:20:10.878Z,39.30
2023-03-19T05:22:40.045Z,39.20
2023-03-19T05:25:09.151Z,39.20
2023-03-19T05:27:38.351Z,39.40
2023-03-19T05:30:08.975Z,39.50
2023-03-19T05:32:38.647Z,39.60
2023-03-19T05:35:08.050Z,39.70
2023-03-19T05:37:37.640Z,39.60
2023-03-19T05:40:07.684Z,39.50
2023-03-19T05:42:36.609Z,39.50
2023-03-19T05:45:06.943Z,39.50
2023-03-19T05:47:36.261Z,39.50
2023-03-19T05:50:05.624Z,39.40
2023-03-19T05:52:34.534Z,39.40
2023-03-19T05:55:03.566Z,39.40
2023-03-19T05:57:32.795Z,39.50
2023-03-19T06:00:01.750Z,39.60
2023-03-19T06:02:30.725Z,39.90
2023-03-19T06:04:59.632Z,40.00
2023-03-19T06:07:28.650Z,40.10
2023-03-19T06:09:57.633Z,40.20
2023-03-19T06:12:30.485Z,40.30
2023-03-19T06:14:59.425Z,40.30
2023-03-19T06:17:28.351Z,40.30
2023-03-19T06:19:57.288Z,40.30
2023-03-19T06:22:26.536Z,40.30
2023-03-19T06:24:55.480Z,40.30
2023-03-19T06:27:24.428Z,40.30
2023-03-19T06:29:53.356Z,40.30
2023-03-19T06:32:22.319Z,40.30
2023-03-19T06:34:51.229Z,40.40
2023-03-19T06:37:20.274Z,40.30
2023-03-19T06:39:50.553Z,40.40
2023-03-19T06:42:19.480Z,40.30
2023-03-19T06:44:48.855Z,40.20
2023-03-19T06:47:17.976Z,40.20
2023-03-19T06:49:47.549Z,40.00
2023-03-19T06:52:16.705Z,40.00
2023-03-19T06:54:45.702Z,40.00
2023-03-19T06:57:14.626Z,40.10
2023-03-19T06:59:43.660Z,40.00
2023-03-19T07:02:15.552Z,40.00
2023-03-19T07:04:44.477Z,40.00
2023-03-19T07:07:13.465Z,40.00
2023-03-19T07:09:42.522Z,40.00
2023-03-19T07:12:11.902Z,40.10
2023-03-19T07:14:40.816Z,40.00
2023-03-19T07:17:10.456Z,39.80
2023-03-19T07:19:39.494Z,39.70
2023-03-19T07:22:08.748Z,39.30
2023-03-19T07:24:37.664Z,39.10
2023-03-19T07:27:06.881Z,38.90
2023-03-19T07:29:35.860Z,38.70
2023-03-19T07:32:05.005Z,38.50
2023-03-19T07:34:34.015Z,38.30
2023-03-19T07:37:03.497Z,38.20
2023-03-19T07:39:32.424Z,38.00
2023-03-19T07:42:01.369Z,37.80
2023-03-19T07:44:30.254Z,37.60
2023-03-19T07:46:59.204Z,37.50
2023-03-19T07:49:28.141Z,37.40
2023-03-19T07:51:57.306Z,37.30
2023-03-19T07:54:26.544Z,37.20
2023-03-19T07:56:55.466Z,37.20
2023-03-19T07:59:24.482Z,37.00
2023-03-19T08:01:53.423Z,36.90
2023-03-19T08:04:22.640Z,36.70
2023-03-19T08:06:51.823Z,36.70
2023-03-19T08:09:20.669Z,36.60
2023-03-19T08:11:49.600Z,36.50
2023-03-19T08:14:23.470Z,36.50
2023-03-19T08:16:52.482Z,36.40
2023-03-19T08:19:21.408Z,36.30
2023-03-19T08:21:50.474Z,36.30
2023-03-19T08:24:19.900Z,36.30
2023-03-19T08:26:49.128Z,36.30
2023-03-19T08:29:19.121Z,36.30
2023-03-19T08:31:48.190Z,36.50
2023-03-19T08:34:17.409Z,36.60
2023-03-19T08:36:46.511Z,36.70
2023-03-19T08:39:15.914Z,36.90
2023-03-19T08:41:44.912Z,37.00
2023-03-19T08:44:13.946Z,37.10
2023-03-19T08:46:43.704Z,37.20
2023-03-19T08:49:12.628Z,37.30
2023-03-19T08:51:41.680Z,37.40
2023-03-19T08:54:12.376Z,37.40
2023-03-19T08:56:42.105Z,37.50
2023-03-19T08:59:11.324Z,37.50
2023-03-19T09:01:40.262Z,37.50
2023-03-19T09:04:09.315Z,37.50
2023-03-19T09:06:38.218Z,37.40
2023-03-19T09:09:07.604Z,37.20
2023-03-19T09:11:36.693Z,37.20
2023-03-19T09:14:05.659Z,37.10
2023-03-19T09:16:34.717Z,37.00
2023-03-19T09:19:03.603Z,37.00
2023-03-19T09:21:32.716Z,37.00
2023-03-19T09:24:01.779Z,36.90
2023-03-19T09:26:30.705Z,36.90
2023-03-19T09:29:00.298Z,36.80
2023-03-19T09:31:29.993Z,36.70
2023-03-19T09:33:59.094Z,36.70
2023-03-19T09:36:28.092Z,36.60
2023-03-19T09:38:57.377Z,36.50
2023-03-19T09:41:53.359Z,36.50
2023-03-19T09:44:35.240Z,36.40
2023-03-19T09:47:14.905Z,36.40
2023-03-19T09:49:49.783Z,36.30
2023-03-19T09:52:51.530Z,36.30
2023-03-19T09:55:27.170Z,36.30
2023-03-19T09:57:58.058Z,36.30
2023-03-19T10:00:28.602Z,36.20
2023-03-19T10:03:02.694Z,36.10
2023-03-19T10:05:46.690Z,36.00
2023-03-19T10:08:33.911Z,36.00
2023-03-19T10:11:06.320Z,35.90
2023-03-19T10:13:57.059Z,35.80
2023-03-19T10:16:30.312Z,35.70
2023-03-19T10:19:03.943Z,35.60
2023-03-19T10:21:40.764Z,35.50
2023-03-19T10:24:28.966Z,35.40
2023-03-19T10:27:06.479Z,35.30
2023-03-19T10:29:36.865Z,35.20
2023-03-19T10:32:23.711Z,35.10
2023-03-19T10:34:56.985Z,35.00
2023-03-19T10:37:28.120Z,34.90
2023-03-19T10:40:03.093Z,34.90
2023-03-19T10:43:18.278Z,34.80
2023-03-19T10:45:47.723Z,34.80
2023-03-19T10:48:19.470Z,34.70
2023-03-19T10:51:05.858Z,34.60
2023-03-19T10:53:36.943Z,34.60
2023-03-19T10:56:24.143Z,34.50
2023-03-19T10:59:03.896Z,34.50
2023-03-19T11:01:39.652Z,34.50
2023-03-19T11:04:30.729Z,34.40
2023-03-19T11:07:10.205Z,34.30
2023-03-19T11:09:41.706Z,34.20
2023-03-19T11:12:24.197Z,34.20
2023-03-19T11:14:59.535Z,34.20
2023-03-19T11:17:31.017Z,34.00
2023-03-19T11:20:01.200Z,34.00
2023-03-19T11:22:36.833Z,33.90
2023-03-19T11:25:20.884Z,33.90
2023-03-19T11:28:10.190Z,33.80
2023-03-19T11:30:45.310Z,33.70
2023-03-19T11:33:42.980Z,33.70
2023-03-19T11:36:24.864Z,33.60
2023-03-19T11:39:06.191Z,33.60
2023-03-19T11:41:56.682Z,33.50
2023-03-19T11:44:48.899Z,33.40
2023-03-19T11:47:50.953Z,33.40
2023-03-19T11:50:40.602Z,33.30
2023-03-19T11:53:13.139Z,33.30
2023-03-19T11:56:15.533Z,33.30
2023-03-19T11:58:47.710Z,33.20
2023-03-19T12:01:32.643Z,33.10
2023-03-19T12:04:27.602Z,33.00
2023-03-19T12:07:02.382Z,33.00
2023-03-19T12:09:37.880Z,32.90
2023-03-19T12:12:34.158Z,32.80
2023-03-19T12:15:33.587Z,32.70
2023-03-19T12:18:40.499Z,32.60
2023-03-19T12:21:30.652Z,32.60
2023-03-19T12:24:13.154Z,32.50
2023-03-19T12:26:51.002Z,32.40
2023-03-19T12:29:25.993Z,32.40
2023-03-19T12:32:04.896Z,32.40
2023-03-19T12:34:50.627Z,32.30
2023-03-19T12:37:31.898Z,32.20
2023-03-19T12:40:21.947Z,32.10
2023-03-19T12:42:50.952Z,32.00
2023-03-19T12:45:38.129Z,31.90
2023-03-19T12:48:34.669Z,31.80
2023-03-19T12:51:10.560Z,31.70
2023-03-19T12:53:48.876Z,31.60
2023-03-19T12:56:34.424Z,31.50
2023-03-19T12:59:06.262Z,31.40
2023-03-19T13:02:14.003Z,31.30
2023-03-19T13:04:56.571Z,31.20
2023-03-19T13:08:09.875Z,31.10
2023-03-19T13:10:39.189Z,31.10
2023-03-19T13:13:19.692Z,31.00
2023-03-19T13:15:53.462Z,30.90
2023-03-19T13:19:06.621Z,30.90
2023-03-19T13:21:39.085Z,30.80
2023-03-19T13:24:35.751Z,30.80
2023-03-19T13:27:07.789Z,30.70
2023-03-19T13:29:40.420Z,30.70
2023-03-19T13:32:12.331Z,30.60
2023-03-19T13:34:41.877Z,30.60
2023-03-19T13:37:22.297Z,30.50
2023-03-19T13:39:51.604Z,30.50
2023-03-19T13:42:36.401Z,30.40
2023-03-19T13:45:38.629Z,30.40
2023-03-19T13:48:37.991Z,30.30
2023-03-19T13:51:24.770Z,30.30
2023-03-19T13:54:03.153Z,30.20
2023-03-19T13:56:54.491Z,30.20
2023-03-19T13:59:32.386Z,30.20
2023-03-19T14:02:03.142Z,30.10
2023-03-19T14:04:38.603Z,30.00
2023-03-19T14:07:19.111Z,30.00
2023-03-19T14:10:09.650Z,29.90
2023-03-19T14:12:40.351Z,29.90
2023-03-19T14:15:12.092Z,29.80
2023-03-19T14:18:00.001Z,29.80
2023-03-19T14:20:48.390Z,29.80
2023-03-19T14:23:36.166Z,29.70
2023-03-19T14:26:19.008Z,29.70
2023-03-19T14:29:05.653Z,29.60
2023-03-19T14:31:37.006Z,29.60
2023-03-19T14:34:23.197Z,29.60
2023-03-19T14:37:40.629Z,29.60
2023-03-19T14:40:25.942Z,29.60
2023-03-19T14:43:15.919Z,29.60
2023-03-19T14:46:06.801Z,29.50
2023-03-19T14:49:04.208Z,29.50
2023-03-19T14:51:58.815Z,29.50
2023-03-19T14:54:30.481Z,29.40
2023-03-19T14:56:59.845Z,29.40
2023-03-19T14:59:37.886Z,29.40
2023-03-19T15:02:18.735Z,29.40
2023-03-19T15:04:49.006Z,29.40
2023-03-19T15:07:27.132Z,29.40
2023-03-19T15:09:57.568Z,29.30
2023-03-19T15:12:34.741Z,29.30
2023-03-19T15:15:10.805Z,29.30
2023-03-19T15:17:40.072Z,29.30
2023-03-19T15:20:27.697Z,29.30
2023-03-19T15:22:59.108Z,29.30
2023-03-19T15:25:28.306Z,29.20
2023-03-19T15:28:10.423Z,29.20
2023-03-19T15:30:52.268Z,29.20
2023-03-19T15:33:39.436Z,29.20
2023-03-19T15:36:32.359Z,29.20
2023-03-19T15:39:13.189Z,29.10
2023-03-19T15:41:47.691Z,29.10
2023-03-19T15:44:25.191Z,29.10
2023-03-19T15:46:54.727Z,29.10
2023-03-19T15:49:27.186Z,29.00
2023-03-19T15:52:01.086Z,29.00
2023-03-19T15:54:30.557Z,29.00
2023-03-19T15:56:59.574Z,28.90
2023-03-19T15:59:34.251Z,28.90
2023-03-19T16:02:05.418Z,28.80
2023-03-19T16:04:55.866Z,28.80
2023-03-19T16:07:36.709Z,28.80
2023-03-19T16:10:44.650Z,28.70
2023-03-19T16:13:25.443Z,28.60
2023-03-19T16:16:12.333Z,28.60
2023-03-19T16:18:56.675Z,28.60
2023-03-19T16:21:37.420Z,28.60
2023-03-19T16:24:06.372Z,28.50
2023-03-19T16:26:42.225Z,28.50
2023-03-19T16:29:32.824Z,28.50
2023-03-19T16:32:04.685Z,28.50
2023-03-19T16:34:37.231Z,28.40
2023-03-19T16:37:34.982Z,28.40
2023-03-19T16:40:25.474Z,28.40
2023-03-19T16:42:57.237Z,28.40
2023-03-19T16:45:31.856Z,28.30
2023-03-19T16:48:04.892Z,28.30
2023-03-19T16:50:42.290Z,28.30
2023-03-19T16:53:33.246Z,28.30
2023-03-19T16:56:04.521Z,28.20
2023-03-19T16:58:44.902Z,28.20
2023-03-19T17:01:21.410Z,28.20
2023-03-19T17:03:51.373Z,28.20
2023-03-19T17:06:21.204Z,28.20
2023-03-19T17:08:50.335Z,28.10
2023-03-19T17:11:41.080Z,28.10
2023-03-19T17:14:19.685Z,28.10
2023-03-19T17:16:51.770Z,28.00
2023-03-19T17:19:24.059Z,28.00
2023-03-19T17:21:58.814Z,27.90
2023-03-19T17:24:35.085Z,27.90
2023-03-19T17:27:05.686Z,27.90
2023-03-19T17:29:35.043Z,27.80
2023-03-19T17:32:05.364Z,27.80
2023-03-19T17:34:34.379Z,27.70
2023-03-19T17:37:05.335Z,27.70
2023-03-19T17:39:35.254Z,27.70
2023-03-19T17:42:04.114Z,27.60
2023-03-19T17:44:33.026Z,27.50
2023-03-19T17:47:02.032Z,27.50
2023-03-19T17:49:33.883Z,27.50
2023-03-19T17:52:03.032Z,27.50
2023-03-19T17:54:32.031Z,27.40
2023-03-19T17:57:00.970Z,27.40
2023-03-19T17:59:30.210Z,27.30
2023-03-19T18:01:59.174Z,27.30
2023-03-19T18:04:28.150Z,27.20
2023-03-19T18:06:58.179Z,27.20
2023-03-19T18:09:33.886Z,27.20
2023-03-19T18:12:02.839Z,27.20
2023-03-19T18:14:31.998Z,27.10
2023-03-19T18:17:00.978Z,27.10
2023-03-19T18:19:34.196Z,27.10
2023-03-19T18:22:03.080Z,27.00
2023-03-19T18:24:31.952Z,27.00
2023-03-19T18:27:00.906Z,27.00
2023-03-19T18:29:29.784Z,27.00
2023-03-19T18:32:04.499Z,27.00
2023-03-19T18:34:33.909Z,27.00
2023-03-19T18:37:03.855Z,26.90
2023-03-19T18:39:37.457Z,26.90
2023-03-19T18:42:06.605Z,26.90
2023-03-19T18:44:35.754Z,26.90
2023-03-19T18:47:04.965Z,26.90
2023-03-19T18:49:34.181Z,26.90
2023-03-19T18:52:03.878Z,26.80
2023-03-19T18:54:33.503Z,26.80
2023-03-19T18:57:03.538Z,26.80
2023-03-19T18:59:34.786Z,26.80
2023-03-19T19:02:20.781Z,26.80
2023-03-19T19:04:49.887Z,26.70
2023-03-19T19:07:18.830Z,26.70
2023-03-19T19:09:47.749Z,26.70
2023-03-19T19:12:18.964Z,26.70
2023-03-19T19:14:48.308Z,26.70
2023-03-19T19:17:25.174Z,26.70
2023-03-19T19:19:54.223Z,26.70
2023-03-19T19:22:23.197Z,26.70
2023-03-19T19:24:52.224Z,26.60
2023-03-19T19:27:27.386Z,26.60
2023-03-19T19:29:56.777Z,26.60
2023-03-19T19:32:31.903Z,26.60
2023-03-19T19:35:00.907Z,26.60
2023-03-19T19:37:29.813Z,26.60
2023-03-19T19:39:59.291Z,26.50
2023-03-19T19:42:30.686Z,26.60
2023-03-19T19:45:00.000Z,26.50
2023-03-19T19:47:29.617Z,26.50
2023-03-19T19:49:59.234Z,26.50
2023-03-19T19:52:28.404Z,26.50
2023-03-19T19:54:57.296Z,26.50
2023-03-19T19:57:26.432Z,26.40
2023-03-19T19:59:56.729Z,26.40
2023-03-19T20:02:29.815Z,26.40
2023-03-19T20:04:59.699Z,26.40
2023-03-19T20:07:28.648Z,26.30
2023-03-19T20:09:57.650Z,26.30
2023-03-19T20:12:32.977Z,26.30
2023-03-19T20:15:02.568Z,26.30
2023-03-19T20:17:31.866Z,26.30
2023-03-19T20:20:00.762Z,26.30
2023-03-19T20:22:29.759Z,26.20
2023-03-19T20:24:59.126Z,26.20
2023-03-19T20:27:33.833Z,26.20
2023-03-19T20:30:03.243Z,26.10
2023-03-19T20:32:39.892Z,26.10
2023-03-19T20:35:20.463Z,26.10
2023-03-19T20:37:49.625Z,26.00
2023-03-19T20:40:19.578Z,26.00
2023-03-19T20:42:51.196Z,26.00
2023-03-19T20:45:23.041Z,26.00
2023-03-19T20:47:54.008Z,25.90
2023-03-19T20:50:26.069Z,25.90
2023-03-19T20:52:56.468Z,25.90
2023-03-19T20:55:29.411Z,25.80
2023-03-19T20:57:58.813Z,25.80
2023-03-19T21:00:33.265Z,25.70
2023-03-19T21:03:03.559Z,25.70
2023-03-19T21:05:37.538Z,25.70
2023-03-19T21:08:07.730Z,25.70
2023-03-19T21:10:44.884Z,25.60
2023-03-19T21:13:19.332Z,25.60
2023-03-19T21:15:51.931Z,25.60
2023-03-19T21:18:21.057Z,25.60
2023-03-19T21:20:55.634Z,25.60
2023-03-19T21:23:32.807Z,25.50
2023-03-19T21:26:08.706Z,25.50
2023-03-19T21:28:39.511Z,25.50
2023-03-19T21:31:12.012Z,25.50
2023-03-19T21:33:41.298Z,25.50
2023-03-19T21:36:11.469Z,25.50
2023-03-19T21:38:40.407Z,25.40
2023-03-19T21:41:19.163Z,25.40
2023-03-19T21:43:53.538Z,25.40
2023-03-19T21:46:28.554Z,25.40
2023-03-19T21:48:58.948Z,25.40
2023-03-19T21:51:29.796Z,25.30
2023-03-19T21:53:59.528Z,25.40
2023-03-19T21:56:34.406Z,25.30
2023-03-19T21:59:14.999Z,25.30
2023-03-19T22:01:44.384Z,25.30
2023-03-19T22:04:13.551Z,25.30
2023-03-19T22:06:44.037Z,25.30
2023-03-19T22:09:13.012Z,25.30
2023-03-19T22:11:47.113Z,25.20
2023-03-19T22:14:20.365Z,25.20
2023-03-19T22:16:53.123Z,25.20
2023-03-19T22:19:23.439Z,25.20
2023-03-19T22:21:52.372Z,25.20
2023-03-19T22:24:21.520Z,25.20
2023-03-19T22:26:57.601Z,25.20
2023-03-19T22:29:27.424Z,25.20
2023-03-19T22:31:58.008Z,25.20
2023-03-19T22:34:29.183Z,25.10
2023-03-19T22:36:58.678Z,25.20
2023-03-19T22:39:27.670Z,25.10
2023-03-19T22:41:56.864Z,25.10
2023-03-19T22:44:32.608Z,25.10
2023-03-19T22:47:03.187Z,25.00
2023-03-19T22:49:32.635Z,25.00
2023-03-19T22:52:01.793Z,25.00
2023-03-19T22:54:30.691Z,25.00
2023-03-19T22:56:59.581Z,24.90
2023-03-19T22:59:29.122Z,24.90
2023-03-19T23:01:59.520Z,24.90
2023-03-19T23:04:31.802Z,24.90
2023-03-19T23:07:02.396Z,24.90
2023-03-19T23:09:33.964Z,24.90
2023-03-19T23:12:04.385Z,24.90
2023-03-19T23:14:33.849Z,24.90
2023-03-19T23:17:07.580Z,24.90
2023-03-19T23:19:39.448Z,25.00
2023-03-19T23:22:13.472Z,25.00
2023-03-19T23:24:43.336Z,25.00
2023-03-19T23:27:27.115Z,25.00
2023-03-19T23:29:56.254Z,25.00
2023-03-19T23:32:25.187Z,25.00
2023-03-19T23:35:00.460Z,25.00
2023-03-19T23:37:30.230Z,25.00
2023-03-19T23:39:59.159Z,25.00
2023-03-19T23:42:32.548Z,25.00
2023-03-19T23:45:04.726Z,25.00
2023-03-19T23:47:34.021Z,25.00
2023-03-19T23:50:02.927Z,25.10
2023-03-19T23:52:31.841Z,25.10
2023-03-19T23:55:00.933Z,25.10
2023-03-19T23:57:29.894Z,25.20
2023-03-19T23:59:59.432Z,25.20
